sensor_id;sensor_type;location;lat;lon;timestamp;P1;durP1;ratioP1;P2;durP2;ratioP2
29568;SDS011;16501;51.462;14.346;2023-11-19T00:01:51;7.55;;;5.13;;
29568;SDS011;16501;51.462;14.346;2023-11-19T00:04:16;7.65;;;4.82;;
29568;SDS011;16501;51.462;14.346;2023-11-19T00:06:41;7.97;;;5.15;;
29568;SDS011;16501;51.462;14.346;2023-11-19T00:09:07;8.02;;;4.85;;
29568;SDS011;16501;51.462;14.346;2023-11-19T00:11:33;8.50;;;5.03;;
29568;SDS011;16501;51.462;14.346;2023-11-19T00:13:58;7.13;;;5.50;;
29568;SDS011;16501;51.462;14.346;2023-11-19T00:16:23;7.45;;;5.05;;
29568;SDS011;16501;51.462;14.346;2023-11-19T00:18:48;8.18;;;4.70;;
29568;SDS011;16501;51.462;14.346;2023-11-19T00:21:14;7.18;;;4.95;;
29568;SDS011;16501;51.462;14.346;2023-11-19T00:23:40;6.18;;;4.75;;
29568;SDS011;16501;51.462;14.346;2023-11-19T00:26:05;8.43;;;4.50;;
29568;SDS011;16501;51.462;14.346;2023-11-19T00:28:31;9.02;;;5.93;;
29568;SDS011;16501;51.462;14.346;2023-11-19T00:30:58;8.32;;;5.05;;
29568;SDS011;16501;51.462;14.346;2023-11-19T00:33:23;8.02;;;5.18;;
29568;SDS011;16501;51.462;14.346;2023-11-19T00:35:49;7.47;;;4.70;;
29568;SDS011;16501;51.462;14.346;2023-11-19T00:38:14;10.52;;;5.32;;
29568;SDS011;16501;51.462;14.346;2023-11-19T00:40:40;9.18;;;6.07;;
29568;SDS011;16501;51.462;14.346;2023-11-19T00:43:05;7.53;;;5.03;;
29568;SDS011;16501;51.462;14.346;2023-11-19T00:45:32;8.52;;;5.07;;
29568;SDS011;16501;51.462;14.346;2023-11-19T00:47:57;10.13;;;5.57;;
29568;SDS011;16501;51.462;14.346;2023-11-19T00:50:24;8.13;;;5.40;;
29568;SDS011;16501;51.462;14.346;2023-11-19T00:52:49;10.95;;;5.43;;
29568;SDS011;16501;51.462;14.346;2023-11-19T00:55:15;8.40;;;5.57;;
29568;SDS011;16501;51.462;14.346;2023-11-19T00:57:40;8.77;;;5.90;;
29568;SDS011;16501;51.462;14.346;2023-11-19T01:00:05;9.05;;;5.93;;
29568;SDS011;16501;51.462;14.346;2023-11-19T01:02:43;8.95;;;5.28;;
29568;SDS011;16501;51.462;14.346;2023-11-19T01:05:08;6.13;;;4.88;;
29568;SDS011;16501;51.462;14.346;2023-11-19T01:07:34;11.65;;;4.97;;
29568;SDS011;16501;51.462;14.346;2023-11-19T01:09:59;10.73;;;5.40;;
29568;SDS011;16501;51.462;14.346;2023-11-19T01:12:24;8.95;;;5.68;;
29568;SDS011;16501;51.462;14.346;2023-11-19T01:14:49;11.43;;;5.72;;
29568;SDS011;16501;51.462;14.346;2023-11-19T01:17:15;10.48;;;5.43;;
29568;SDS011;16501;51.462;14.346;2023-11-19T01:19:41;12.57;;;5.38;;
29568;SDS011;16501;51.462;14.346;2023-11-19T01:22:06;6.18;;;4.63;;
29568;SDS011;16501;51.462;14.346;2023-11-19T01:24:31;8.35;;;4.95;;
29568;SDS011;16501;51.462;14.346;2023-11-19T01:27:02;10.73;;;5.22;;
29568;SDS011;16501;51.462;14.346;2023-11-19T01:29:27;8.18;;;5.30;;
29568;SDS011;16501;51.462;14.346;2023-11-19T01:31:53;7.35;;;4.65;;
29568;SDS011;16501;51.462;14.346;2023-11-19T01:34:18;7.90;;;5.13;;
29568;SDS011;16501;51.462;14.346;2023-11-19T01:36:43;8.43;;;4.90;;
29568;SDS011;16501;51.462;14.346;2023-11-19T01:39:09;6.85;;;5.15;;
29568;SDS011;16501;51.462;14.346;2023-11-19T01:41:37;8.90;;;4.80;;
29568;SDS011;16501;51.462;14.346;2023-11-19T01:44:04;6.10;;;4.32;;
29568;SDS011;16501;51.462;14.346;2023-11-19T01:46:30;8.60;;;4.55;;
29568;SDS011;16501;51.462;14.346;2023-11-19T01:48:57;8.43;;;5.22;;
29568;SDS011;16501;51.462;14.346;2023-11-19T01:51:24;7.53;;;4.80;;
29568;SDS011;16501;51.462;14.346;2023-11-19T01:53:49;5.32;;;4.05;;
29568;SDS011;16501;51.462;14.346;2023-11-19T01:56:15;7.53;;;4.32;;
29568;SDS011;16501;51.462;14.346;2023-11-19T01:58:41;7.07;;;4.32;;
29568;SDS011;16501;51.462;14.346;2023-11-19T02:01:08;6.72;;;4.68;;
29568;SDS011;16501;51.462;14.346;2023-11-19T02:03:36;6.85;;;4.90;;
29568;SDS011;16501;51.462;14.346;2023-11-19T02:06:01;9.05;;;4.60;;
29568;SDS011;16501;51.462;14.346;2023-11-19T02:08:27;6.63;;;4.50;;
29568;SDS011;16501;51.462;14.346;2023-11-19T02:10:54;5.95;;;4.30;;
29568;SDS011;16501;51.462;14.346;2023-11-19T02:13:22;6.72;;;4.28;;
29568;SDS011;16501;51.462;14.346;2023-11-19T02:15:47;8.02;;;4.28;;
29568;SDS011;16501;51.462;14.346;2023-11-19T02:20:49;10.75;;;4.50;;
29568;SDS011;16501;51.462;14.346;2023-11-19T02:23:15;7.05;;;4.55;;
29568;SDS011;16501;51.462;14.346;2023-11-19T02:25:41;7.32;;;4.80;;
29568;SDS011;16501;51.462;14.346;2023-11-19T02:28:07;7.28;;;4.28;;
29568;SDS011;16501;51.462;14.346;2023-11-19T02:30:33;5.65;;;4.32;;
29568;SDS011;16501;51.462;14.346;2023-11-19T02:32:58;9.52;;;3.95;;
29568;SDS011;16501;51.462;14.346;2023-11-19T02:35:26;9.15;;;4.90;;
29568;SDS011;16501;51.462;14.346;2023-11-19T02:37:51;8.23;;;4.78;;
29568;SDS011;16501;51.462;14.346;2023-11-19T02:40:17;7.68;;;4.85;;
29568;SDS011;16501;51.462;14.346;2023-11-19T02:42:43;7.22;;;4.47;;
29568;SDS011;16501;51.462;14.346;2023-11-19T02:45:08;7.32;;;4.95;;
29568;SDS011;16501;51.462;14.346;2023-11-19T02:47:40;6.60;;;4.68;;
29568;SDS011;16501;51.462;14.346;2023-11-19T02:50:07;8.35;;;4.90;;
29568;SDS011;16501;51.462;14.346;2023-11-19T02:52:39;5.55;;;4.03;;
29568;SDS011;16501;51.462;14.346;2023-11-19T02:55:07;5.13;;;3.83;;
29568;SDS011;16501;51.462;14.346;2023-11-19T02:57:35;7.38;;;4.40;;
29568;SDS011;16501;51.462;14.346;2023-11-19T03:00:01;6.00;;;4.03;;
29568;SDS011;16501;51.462;14.346;2023-11-19T03:02:36;5.35;;;3.95;;
29568;SDS011;16501;51.462;14.346;2023-11-19T03:05:09;4.53;;;3.45;;
29568;SDS011;16501;51.462;14.346;2023-11-19T03:07:34;5.65;;;3.83;;
29568;SDS011;16501;51.462;14.346;2023-11-19T03:10:00;6.72;;;4.03;;
29568;SDS011;16501;51.462;14.346;2023-11-19T03:12:25;5.20;;;3.88;;
29568;SDS011;16501;51.462;14.346;2023-11-19T03:14:51;6.57;;;3.70;;
29568;SDS011;16501;51.462;14.346;2023-11-19T03:17:16;6.03;;;3.58;;
29568;SDS011;16501;51.462;14.346;2023-11-19T03:19:41;6.10;;;4.20;;
29568;SDS011;16501;51.462;14.346;2023-11-19T03:22:07;5.50;;;4.05;;
29568;SDS011;16501;51.462;14.346;2023-11-19T03:24:32;5.85;;;4.18;;
29568;SDS011;16501;51.462;14.346;2023-11-19T03:26:57;5.32;;;3.88;;
29568;SDS011;16501;51.462;14.346;2023-11-19T03:29:22;4.57;;;3.15;;
29568;SDS011;16501;51.462;14.346;2023-11-19T03:31:48;5.60;;;3.58;;
29568;SDS011;16501;51.462;14.346;2023-11-19T03:34:13;4.45;;;3.65;;
29568;SDS011;16501;51.462;14.346;2023-11-19T03:36:38;4.47;;;3.35;;
29568;SDS011;16501;51.462;14.346;2023-11-19T03:39:04;5.25;;;3.38;;
29568;SDS011;16501;51.462;14.346;2023-11-19T03:41:30;5.80;;;3.67;;
29568;SDS011;16501;51.462;14.346;2023-11-19T03:43:55;4.55;;;3.33;;
29568;SDS011;16501;51.462;14.346;2023-11-19T03:46:21;4.78;;;3.38;;
29568;SDS011;16501;51.462;14.346;2023-11-19T03:48:47;5.25;;;3.50;;
29568;SDS011;16501;51.462;14.346;2023-11-19T03:51:13;4.70;;;3.13;;
29568;SDS011;16501;51.462;14.346;2023-11-19T03:53:40;5.35;;;3.13;;
29568;SDS011;16501;51.462;14.346;2023-11-19T03:56:09;5.60;;;3.38;;
29568;SDS011;16501;51.462;14.346;2023-11-19T03:58:35;5.25;;;3.50;;
29568;SDS011;16501;51.462;14.346;2023-11-19T04:01:00;5.03;;;3.15;;
29568;SDS011;16501;51.462;14.346;2023-11-19T04:03:26;5.47;;;3.40;;
29568;SDS011;16501;51.462;14.346;2023-11-19T04:05:51;3.97;;;2.92;;
29568;SDS011;16501;51.462;14.346;2023-11-19T04:08:16;4.35;;;3.05;;
29568;SDS011;16501;51.462;14.346;2023-11-19T04:10:42;5.15;;;3.00;;
29568;SDS011;16501;51.462;14.346;2023-11-19T04:13:07;4.75;;;3.10;;
29568;SDS011;16501;51.462;14.346;2023-11-19T04:15:32;4.40;;;3.15;;
29568;SDS011;16501;51.462;14.346;2023-11-19T04:17:57;3.80;;;2.95;;
29568;SDS011;16501;51.462;14.346;2023-11-19T04:20:23;3.45;;;2.50;;
29568;SDS011;16501;51.462;14.346;2023-11-19T04:22:49;3.97;;;2.75;;
29568;SDS011;16501;51.462;14.346;2023-11-19T04:25:16;3.30;;;2.50;;
29568;SDS011;16501;51.462;14.346;2023-11-19T04:27:41;4.32;;;2.58;;
29568;SDS011;16501;51.462;14.346;2023-11-19T04:30:06;4.15;;;2.92;;
29568;SDS011;16501;51.462;14.346;2023-11-19T04:32:35;3.80;;;2.75;;
29568;SDS011;16501;51.462;14.346;2023-11-19T04:35:00;3.95;;;2.08;;
29568;SDS011;16501;51.462;14.346;2023-11-19T04:37:25;4.35;;;2.50;;
29568;SDS011;16501;51.462;14.346;2023-11-19T04:39:50;3.75;;;2.35;;
29568;SDS011;16501;51.462;14.346;2023-11-19T04:42:16;4.25;;;2.00;;
29568;SDS011;16501;51.462;14.346;2023-11-19T04:44:42;3.10;;;2.10;;
29568;SDS011;16501;51.462;14.346;2023-11-19T04:47:08;3.05;;;2.05;;
29568;SDS011;16501;51.462;14.346;2023-11-19T04:49:35;2.35;;;1.80;;
29568;SDS011;16501;51.462;14.346;2023-11-19T04:52:05;3.30;;;2.20;;
29568;SDS011;16501;51.462;14.346;2023-11-19T04:54:30;2.90;;;2.10;;
29568;SDS011;16501;51.462;14.346;2023-11-19T04:56:55;2.30;;;1.90;;
29568;SDS011;16501;51.462;14.346;2023-11-19T04:59:20;2.60;;;1.85;;
29568;SDS011;16501;51.462;14.346;2023-11-19T05:01:46;2.72;;;2.17;;
29568;SDS011;16501;51.462;14.346;2023-11-19T05:04:13;2.75;;;1.88;;
29568;SDS011;16501;51.462;14.346;2023-11-19T05:06:38;5.00;;;1.83;;
29568;SDS011;16501;51.462;14.346;2023-11-19T05:09:03;3.78;;;1.98;;
29568;SDS011;16501;51.462;14.346;2023-11-19T05:11:32;2.80;;;2.22;;
29568;SDS011;16501;51.462;14.346;2023-11-19T05:13:57;2.35;;;1.90;;
29568;SDS011;16501;51.462;14.346;2023-11-19T05:16:23;3.70;;;2.28;;
29568;SDS011;16501;51.462;14.346;2023-11-19T05:18:48;1.92;;;1.70;;
29568;SDS011;16501;51.462;14.346;2023-11-19T05:21:14;3.72;;;1.92;;
29568;SDS011;16501;51.462;14.346;2023-11-19T05:23:39;3.78;;;1.95;;
29568;SDS011;16501;51.462;14.346;2023-11-19T05:26:04;2.10;;;1.90;;
29568;SDS011;16501;51.462;14.346;2023-11-19T05:28:30;2.47;;;2.13;;
29568;SDS011;16501;51.462;14.346;2023-11-19T05:30:55;6.18;;;2.15;;
29568;SDS011;16501;51.462;14.346;2023-11-19T05:33:20;2.88;;;2.17;;
29568;SDS011;16501;51.462;14.346;2023-11-19T05:35:46;3.33;;;2.38;;
29568;SDS011;16501;51.462;14.346;2023-11-19T05:38:11;2.67;;;2.30;;
29568;SDS011;16501;51.462;14.346;2023-11-19T05:40:36;4.22;;;2.10;;
29568;SDS011;16501;51.462;14.346;2023-11-19T05:43:03;3.80;;;2.83;;
29568;SDS011;16501;51.462;14.346;2023-11-19T05:45:29;3.05;;;2.63;;
29568;SDS011;16501;51.462;14.346;2023-11-19T05:47:54;6.78;;;2.40;;
29568;SDS011;16501;51.462;14.346;2023-11-19T05:50:19;2.58;;;2.05;;
29568;SDS011;16501;51.462;14.346;2023-11-19T05:52:44;2.50;;;1.90;;
29568;SDS011;16501;51.462;14.346;2023-11-19T05:55:10;3.58;;;2.33;;
29568;SDS011;16501;51.462;14.346;2023-11-19T05:57:38;3.40;;;2.20;;
29568;SDS011;16501;51.462;14.346;2023-11-19T06:00:05;5.00;;;2.20;;
29568;SDS011;16501;51.462;14.346;2023-11-19T06:02:32;4.47;;;2.78;;
29568;SDS011;16501;51.462;14.346;2023-11-19T06:04:57;3.88;;;2.47;;
29568;SDS011;16501;51.462;14.346;2023-11-19T06:07:23;5.03;;;2.63;;
29568;SDS011;16501;51.462;14.346;2023-11-19T06:09:48;4.78;;;2.58;;
29568;SDS011;16501;51.462;14.346;2023-11-19T06:12:13;4.53;;;2.15;;
29568;SDS011;16501;51.462;14.346;2023-11-19T06:14:39;4.30;;;2.42;;
29568;SDS011;16501;51.462;14.346;2023-11-19T06:17:05;5.88;;;2.40;;
29568;SDS011;16501;51.462;14.346;2023-11-19T06:19:30;3.08;;;2.17;;
29568;SDS011;16501;51.462;14.346;2023-11-19T06:21:56;4.53;;;2.40;;
29568;SDS011;16501;51.462;14.346;2023-11-19T06:24:21;3.95;;;2.42;;
29568;SDS011;16501;51.462;14.346;2023-11-19T06:26:47;2.80;;;2.10;;
29568;SDS011;16501;51.462;14.346;2023-11-19T06:29:12;3.60;;;2.20;;
29568;SDS011;16501;51.462;14.346;2023-11-19T06:31:43;2.88;;;2.10;;
29568;SDS011;16501;51.462;14.346;2023-11-19T06:34:08;3.17;;;2.00;;
29568;SDS011;16501;51.462;14.346;2023-11-19T06:36:33;3.00;;;2.33;;
29568;SDS011;16501;51.462;14.346;2023-11-19T06:38:59;2.80;;;2.03;;
29568;SDS011;16501;51.462;14.346;2023-11-19T06:41:24;3.75;;;2.28;;
29568;SDS011;16501;51.462;14.346;2023-11-19T06:43:49;2.53;;;1.90;;
29568;SDS011;16501;51.462;14.346;2023-11-19T06:46:17;2.83;;;2.10;;
29568;SDS011;16501;51.462;14.346;2023-11-19T06:48:43;3.05;;;2.00;;
29568;SDS011;16501;51.462;14.346;2023-11-19T06:51:09;2.00;;;1.80;;
29568;SDS011;16501;51.462;14.346;2023-11-19T06:53:35;4.95;;;2.47;;
29568;SDS011;16501;51.462;14.346;2023-11-19T06:56:00;3.05;;;2.30;;
29568;SDS011;16501;51.462;14.346;2023-11-19T06:58:26;2.80;;;2.20;;
29568;SDS011;16501;51.462;14.346;2023-11-19T07:00:51;4.05;;;2.30;;
29568;SDS011;16501;51.462;14.346;2023-11-19T07:03:16;3.03;;;2.22;;
29568;SDS011;16501;51.462;14.346;2023-11-19T07:05:42;3.35;;;2.25;;
29568;SDS011;16501;51.462;14.346;2023-11-19T07:08:08;3.58;;;2.13;;
29568;SDS011;16501;51.462;14.346;2023-11-19T07:10:34;3.15;;;2.10;;
29568;SDS011;16501;51.462;14.346;2023-11-19T07:12:59;2.92;;;2.00;;
29568;SDS011;16501;51.462;14.346;2023-11-19T07:15:25;2.67;;;2.20;;
29568;SDS011;16501;51.462;14.346;2023-11-19T07:17:50;2.85;;;2.10;;
29568;SDS011;16501;51.462;14.346;2023-11-19T07:20:16;3.22;;;2.03;;
29568;SDS011;16501;51.462;14.346;2023-11-19T07:22:44;2.30;;;1.95;;
29568;SDS011;16501;51.462;14.346;2023-11-19T07:25:12;3.60;;;2.00;;
29568;SDS011;16501;51.462;14.346;2023-11-19T07:27:39;2.85;;;1.80;;
29568;SDS011;16501;51.462;14.346;2023-11-19T07:30:05;2.92;;;2.00;;
29568;SDS011;16501;51.462;14.346;2023-11-19T07:32:32;2.92;;;2.20;;
29568;SDS011;16501;51.462;14.346;2023-11-19T07:34:58;3.28;;;1.85;;
29568;SDS011;16501;51.462;14.346;2023-11-19T07:37:23;2.72;;;1.90;;
29568;SDS011;16501;51.462;14.346;2023-11-19T07:39:48;5.68;;;2.03;;
29568;SDS011;16501;51.462;14.346;2023-11-19T07:42:14;3.35;;;1.77;;
29568;SDS011;16501;51.462;14.346;2023-11-19T07:44:39;3.67;;;1.77;;
29568;SDS011;16501;51.462;14.346;2023-11-19T07:47:04;1.92;;;1.48;;
29568;SDS011;16501;51.462;14.346;2023-11-19T07:49:30;2.85;;;1.90;;
29568;SDS011;16501;51.462;14.346;2023-11-19T07:51:56;3.38;;;1.80;;
29568;SDS011;16501;51.462;14.346;2023-11-19T07:54:21;4.25;;;1.90;;
29568;SDS011;16501;51.462;14.346;2023-11-19T07:56:46;2.95;;;1.65;;
29568;SDS011;16501;51.462;14.346;2023-11-19T07:59:15;2.47;;;1.55;;
29568;SDS011;16501;51.462;14.346;2023-11-19T08:01:40;2.30;;;1.90;;
29568;SDS011;16501;51.462;14.346;2023-11-19T08:04:05;3.67;;;1.70;;
29568;SDS011;16501;51.462;14.346;2023-11-19T08:06:30;1.45;;;1.30;;
29568;SDS011;16501;51.462;14.346;2023-11-19T08:08:56;3.25;;;1.60;;
29568;SDS011;16501;51.462;14.346;2023-11-19T08:11:21;1.40;;;1.30;;
29568;SDS011;16501;51.462;14.346;2023-11-19T08:13:47;1.65;;;1.40;;
29568;SDS011;16501;51.462;14.346;2023-11-19T08:16:12;2.65;;;1.77;;
29568;SDS011;16501;51.462;14.346;2023-11-19T08:18:40;1.13;;;1.00;;
29568;SDS011;16501;51.462;14.346;2023-11-19T08:21:08;1.57;;;1.37;;
29568;SDS011;16501;51.462;14.346;2023-11-19T08:23:34;1.90;;;1.67;;
29568;SDS011;16501;51.462;14.346;2023-11-19T08:26:02;1.50;;;1.40;;
29568;SDS011;16501;51.462;14.346;2023-11-19T08:28:27;1.85;;;1.48;;
29568;SDS011;16501;51.462;14.346;2023-11-19T08:30:52;1.58;;;1.15;;
29568;SDS011;16501;51.462;14.346;2023-11-19T08:33:18;1.60;;;1.50;;
29568;SDS011;16501;51.462;14.346;2023-11-19T08:35:43;4.30;;;1.50;;
29568;SDS011;16501;51.462;14.346;2023-11-19T08:38:08;2.35;;;1.50;;
29568;SDS011;16501;51.462;14.346;2023-11-19T08:40:33;2.83;;;1.40;;
29568;SDS011;16501;51.462;14.346;2023-11-19T08:42:59;2.83;;;1.52;;
29568;SDS011;16501;51.462;14.346;2023-11-19T08:45:24;2.10;;;1.73;;
29568;SDS011;16501;51.462;14.346;2023-11-19T08:47:50;1.75;;;1.40;;
29568;SDS011;16501;51.462;14.346;2023-11-19T08:50:15;2.65;;;1.48;;
29568;SDS011;16501;51.462;14.346;2023-11-19T08:52:40;1.83;;;1.42;;
29568;SDS011;16501;51.462;14.346;2023-11-19T08:55:06;1.88;;;1.40;;
29568;SDS011;16501;51.462;14.346;2023-11-19T08:57:31;3.25;;;1.63;;
29568;SDS011;16501;51.462;14.346;2023-11-19T08:59:57;2.40;;;1.30;;
29568;SDS011;16501;51.462;14.346;2023-11-19T09:02:23;2.22;;;1.65;;
29568;SDS011;16501;51.462;14.346;2023-11-19T09:04:48;1.67;;;1.55;;
29568;SDS011;16501;51.462;14.346;2023-11-19T09:07:13;2.75;;;1.70;;
29568;SDS011;16501;51.462;14.346;2023-11-19T09:09:39;2.00;;;1.70;;
29568;SDS011;16501;51.462;14.346;2023-11-19T09:12:04;1.90;;;1.60;;
29568;SDS011;16501;51.462;14.346;2023-11-19T09:14:30;1.83;;;1.52;;
29568;SDS011;16501;51.462;14.346;2023-11-19T09:16:55;2.35;;;1.50;;
29568;SDS011;16501;51.462;14.346;2023-11-19T09:19:21;2.10;;;1.60;;
29568;SDS011;16501;51.462;14.346;2023-11-19T09:21:46;3.58;;;1.63;;
29568;SDS011;16501;51.462;14.346;2023-11-19T09:24:14;1.67;;;1.58;;
29568;SDS011;16501;51.462;14.346;2023-11-19T09:26:39;2.35;;;2.15;;
29568;SDS011;16501;51.462;14.346;2023-11-19T09:29:06;1.70;;;1.60;;
29568;SDS011;16501;51.462;14.346;2023-11-19T09:31:32;2.00;;;1.23;;
29568;SDS011;16501;51.462;14.346;2023-11-19T09:33:57;3.97;;;1.20;;
29568;SDS011;16501;51.462;14.346;2023-11-19T09:36:23;1.83;;;1.67;;
29568;SDS011;16501;51.462;14.346;2023-11-19T09:38:48;1.20;;;1.10;;
29568;SDS011;16501;51.462;14.346;2023-11-19T09:41:13;1.42;;;1.10;;
29568;SDS011;16501;51.462;14.346;2023-11-19T09:43:39;1.95;;;1.23;;
29568;SDS011;16501;51.462;14.346;2023-11-19T09:46:05;1.30;;;1.20;;
29568;SDS011;16501;51.462;14.346;2023-11-19T09:48:32;1.63;;;1.38;;
29568;SDS011;16501;51.462;14.346;2023-11-19T09:51:00;1.42;;;1.13;;
29568;SDS011;16501;51.462;14.346;2023-11-19T09:53:26;1.15;;;1.02;;
29568;SDS011;16501;51.462;14.346;2023-11-19T09:55:51;3.97;;;1.40;;
29568;SDS011;16501;51.462;14.346;2023-11-19T09:58:18;3.10;;;1.20;;
29568;SDS011;16501;51.462;14.346;2023-11-19T10:00:43;1.30;;;1.00;;
29568;SDS011;16501;51.462;14.346;2023-11-19T10:03:08;1.35;;;1.00;;
29568;SDS011;16501;51.462;14.346;2023-11-19T10:05:37;6.32;;;4.40;;
29568;SDS011;16501;51.462;14.346;2023-11-19T10:08:03;1.48;;;1.23;;
29568;SDS011;16501;51.462;14.346;2023-11-19T10:10:29;3.05;;;1.15;;
29568;SDS011;16501;51.462;14.346;2023-11-19T10:12:55;2.63;;;1.38;;
29568;SDS011;16501;51.462;14.346;2023-11-19T10:15:21;1.50;;;1.40;;
29568;SDS011;16501;51.462;14.346;2023-11-19T10:17:47;2.83;;;1.15;;
29568;SDS011;16501;51.462;14.346;2023-11-19T10:20:13;1.85;;;1.00;;
29568;SDS011;16501;51.462;14.346;2023-11-19T10:22:38;2.88;;;2.20;;
29568;SDS011;16501;51.462;14.346;2023-11-19T10:25:04;2.22;;;1.38;;
29568;SDS011;16501;51.462;14.346;2023-11-19T10:27:50;5.00;;;1.48;;
29568;SDS011;16501;51.462;14.346;2023-11-19T10:30:17;3.95;;;1.80;;
29568;SDS011;16501;51.462;14.346;2023-11-19T10:32:54;6.68;;;2.38;;
29568;SDS011;16501;51.462;14.346;2023-11-19T10:37:53;2.53;;;1.60;;
29568;SDS011;16501;51.462;14.346;2023-11-19T10:40:19;3.50;;;1.30;;
29568;SDS011;16501;51.462;14.346;2023-11-19T10:42:45;3.50;;;1.75;;
29568;SDS011;16501;51.462;14.346;2023-11-19T10:45:22;4.22;;;1.52;;
29568;SDS011;16501;51.462;14.346;2023-11-19T10:47:51;2.58;;;1.10;;
29568;SDS011;16501;51.462;14.346;2023-11-19T10:50:17;1.05;;;0.70;;
29568;SDS011;16501;51.462;14.346;2023-11-19T10:52:43;2.85;;;1.33;;
29568;SDS011;16501;51.462;14.346;2023-11-19T10:55:09;9.60;;;5.25;;
29568;SDS011;16501;51.462;14.346;2023-11-19T10:57:38;7.20;;;2.10;;
29568;SDS011;16501;51.462;14.346;2023-11-19T11:00:08;4.72;;;2.38;;
29568;SDS011;16501;51.462;14.346;2023-11-19T11:02:38;6.50;;;3.55;;
29568;SDS011;16501;51.462;14.346;2023-11-19T11:05:07;2.72;;;2.00;;
29568;SDS011;16501;51.462;14.346;2023-11-19T11:07:33;2.28;;;1.52;;
29568;SDS011;16501;51.462;14.346;2023-11-19T11:09:59;5.65;;;2.30;;
29568;SDS011;16501;51.462;14.346;2023-11-19T11:12:40;5.47;;;2.70;;
29568;SDS011;16501;51.462;14.346;2023-11-19T11:15:06;6.43;;;1.98;;
29568;SDS011;16501;51.462;14.346;2023-11-19T11:17:33;5.95;;;1.73;;
29568;SDS011;16501;51.462;14.346;2023-11-19T11:19:58;2.90;;;1.15;;
29568;SDS011;16501;51.462;14.346;2023-11-19T11:22:24;5.90;;;2.90;;
29568;SDS011;16501;51.462;14.346;2023-11-19T11:25:13;5.18;;;2.28;;
29568;SDS011;16501;51.462;14.346;2023-11-19T11:28:06;7.45;;;2.03;;
29568;SDS011;16501;51.462;14.346;2023-11-19T11:30:49;4.30;;;1.80;;
29568;SDS011;16501;51.462;14.346;2023-11-19T11:33:41;7.00;;;2.42;;
29568;SDS011;16501;51.462;14.346;2023-11-19T11:36:20;4.65;;;2.63;;
29568;SDS011;16501;51.462;14.346;2023-11-19T11:38:47;10.38;;;4.97;;
29568;SDS011;16501;51.462;14.346;2023-11-19T11:41:15;11.75;;;3.65;;
29568;SDS011;16501;51.462;14.346;2023-11-19T11:43:44;7.82;;;3.20;;
29568;SDS011;16501;51.462;14.346;2023-11-19T11:49:07;5.18;;;3.15;;
29568;SDS011;16501;51.462;14.346;2023-11-19T11:54:09;6.32;;;3.53;;
29568;SDS011;16501;51.462;14.346;2023-11-19T11:56:38;18.00;;;7.20;;
29568;SDS011;16501;51.462;14.346;2023-11-19T11:59:19;5.10;;;2.00;;
29568;SDS011;16501;51.462;14.346;2023-11-19T12:01:57;5.38;;;2.38;;
29568;SDS011;16501;51.462;14.346;2023-11-19T12:04:25;6.50;;;1.75;;
29568;SDS011;16501;51.462;14.346;2023-11-19T12:07:13;4.88;;;1.58;;
29568;SDS011;16501;51.462;14.346;2023-11-19T12:09:41;1.95;;;1.60;;
29568;SDS011;16501;51.462;14.346;2023-11-19T12:12:11;12.43;;;2.53;;
29568;SDS011;16501;51.462;14.346;2023-11-19T12:15:00;16.80;;;10.95;;
29568;SDS011;16501;51.462;14.346;2023-11-19T12:20:01;8.82;;;3.08;;
29568;SDS011;16501;51.462;14.346;2023-11-19T12:22:28;4.30;;;2.17;;
29568;SDS011;16501;51.462;14.346;2023-11-19T12:24:53;6.40;;;2.45;;
29568;SDS011;16501;51.462;14.346;2023-11-19T12:27:19;3.58;;;1.60;;
29568;SDS011;16501;51.462;14.346;2023-11-19T12:29:47;7.57;;;2.40;;
29568;SDS011;16501;51.462;14.346;2023-11-19T12:32:12;7.68;;;1.90;;
29568;SDS011;16501;51.462;14.346;2023-11-19T12:34:38;5.85;;;1.70;;
29568;SDS011;16501;51.462;14.346;2023-11-19T12:37:04;7.55;;;2.03;;
29568;SDS011;16501;51.462;14.346;2023-11-19T12:39:30;8.40;;;1.73;;
29568;SDS011;16501;51.462;14.346;2023-11-19T12:41:56;5.40;;;3.05;;
29568;SDS011;16501;51.462;14.346;2023-11-19T12:44:24;8.85;;;1.98;;
29568;SDS011;16501;51.462;14.346;2023-11-19T12:46:59;7.68;;;3.30;;
29568;SDS011;16501;51.462;14.346;2023-11-19T12:49:28;10.68;;;2.58;;
29568;SDS011;16501;51.462;14.346;2023-11-19T12:51:54;6.40;;;3.17;;
29568;SDS011;16501;51.462;14.346;2023-11-19T12:54:19;10.55;;;2.78;;
29568;SDS011;16501;51.462;14.346;2023-11-19T12:56:53;8.38;;;2.15;;
29568;SDS011;16501;51.462;14.346;2023-11-19T12:59:18;6.93;;;2.22;;
29568;SDS011;16501;51.462;14.346;2023-11-19T13:01:59;7.10;;;2.58;;
29568;SDS011;16501;51.462;14.346;2023-11-19T13:04:28;8.95;;;2.47;;
29568;SDS011;16501;51.462;14.346;2023-11-19T13:06:58;10.38;;;3.08;;
29568;SDS011;16501;51.462;14.346;2023-11-19T13:09:24;7.60;;;2.72;;
29568;SDS011;16501;51.462;14.346;2023-11-19T13:11:54;4.97;;;2.83;;
29568;SDS011;16501;51.462;14.346;2023-11-19T13:14:20;7.80;;;2.00;;
29568;SDS011;16501;51.462;14.346;2023-11-19T13:16:45;7.22;;;2.35;;
29568;SDS011;16501;51.462;14.346;2023-11-19T13:19:14;6.40;;;2.00;;
29568;SDS011;16501;51.462;14.346;2023-11-19T13:21:41;17.05;;;10.48;;
29568;SDS011;16501;51.462;14.346;2023-11-19T13:24:07;20.15;;;14.02;;
29568;SDS011;16501;51.462;14.346;2023-11-19T13:26:32;10.23;;;4.97;;
29568;SDS011;16501;51.462;14.346;2023-11-19T13:28:57;10.73;;;3.78;;
29568;SDS011;16501;51.462;14.346;2023-11-19T13:31:22;6.78;;;2.33;;
29568;SDS011;16501;51.462;14.346;2023-11-19T13:33:48;7.40;;;2.30;;
29568;SDS011;16501;51.462;14.346;2023-11-19T13:36:13;9.30;;;4.20;;
29568;SDS011;16501;51.462;14.346;2023-11-19T13:38:38;14.50;;;4.57;;
29568;SDS011;16501;51.462;14.346;2023-11-19T13:41:06;11.55;;;5.07;;
29568;SDS011;16501;51.462;14.346;2023-11-19T13:43:31;8.55;;;3.38;;
29568;SDS011;16501;51.462;14.346;2023-11-19T13:45:57;9.43;;;3.97;;
29568;SDS011;16501;51.462;14.346;2023-11-19T13:48:23;6.50;;;2.80;;
29568;SDS011;16501;51.462;14.346;2023-11-19T13:50:49;5.57;;;2.53;;
29568;SDS011;16501;51.462;14.346;2023-11-19T13:53:14;10.13;;;4.57;;
29568;SDS011;16501;51.462;14.346;2023-11-19T13:55:40;11.40;;;3.35;;
29568;SDS011;16501;51.462;14.346;2023-11-19T13:58:05;7.32;;;3.20;;
29568;SDS011;16501;51.462;14.346;2023-11-19T14:00:30;6.78;;;2.30;;
29568;SDS011;16501;51.462;14.346;2023-11-19T14:02:55;7.57;;;2.95;;
29568;SDS011;16501;51.462;14.346;2023-11-19T14:05:21;8.35;;;3.50;;
29568;SDS011;16501;51.462;14.346;2023-11-19T14:07:48;9.02;;;2.42;;
29568;SDS011;16501;51.462;14.346;2023-11-19T14:10:15;9.57;;;2.45;;
29568;SDS011;16501;51.462;14.346;2023-11-19T14:12:40;9.90;;;2.78;;
29568;SDS011;16501;51.462;14.346;2023-11-19T14:15:06;8.52;;;3.78;;
29568;SDS011;16501;51.462;14.346;2023-11-19T14:17:34;17.42;;;4.80;;
29568;SDS011;16501;51.462;14.346;2023-11-19T14:19:59;9.98;;;3.33;;
29568;SDS011;16501;51.462;14.346;2023-11-19T14:22:25;68.40;;;26.02;;
29568;SDS011;16501;51.462;14.346;2023-11-19T14:24:50;94.93;;;38.67;;
29568;SDS011;16501;51.462;14.346;2023-11-19T14:27:16;15.88;;;6.50;;
29568;SDS011;16501;51.462;14.346;2023-11-19T14:29:44;13.35;;;4.35;;
29568;SDS011;16501;51.462;14.346;2023-11-19T14:32:12;11.40;;;3.17;;
29568;SDS011;16501;51.462;14.346;2023-11-19T14:34:37;10.80;;;3.45;;
29568;SDS011;16501;51.462;14.346;2023-11-19T14:37:03;12.88;;;3.72;;
29568;SDS011;16501;51.462;14.346;2023-11-19T14:39:28;9.52;;;4.28;;
29568;SDS011;16501;51.462;14.346;2023-11-19T14:41:56;12.65;;;3.00;;
29568;SDS011;16501;51.462;14.346;2023-11-19T14:44:29;15.48;;;3.20;;